Terminal Aerodrome Forecast
Issued by NWS Burlington, VT

Home | Current Version | Previous Version | Text Only | Print | Product List | Glossary On
Versions: 1 2 3 4 5 6 7 8 9 10 11 12 13 14 15
000
FTUS41 KBTV 220500
TAFBTV
TAF
KBTV 220536Z 2206/2306 18005KT P6SM VCSH OVC028
     FM221500 18006KT P6SM SCT028 BKN035
     FM222000 17008KT P6SM BKN045=

USA.gov is the U.S. government's official web portal to all federal, state and local government web resources and services.